Архив погоды в Якше

Метеограмма Якша
Воскресенье, 18 Августа
Время местн. Темп Ветер Видим Явления Облачность нижн/средн/верх Атм. давл. Влжн Точка росы ВНГО R Сост. почвы Tg s
Напр Скр Прв ур.ст ур.м изм
03:00 +4.8° Ю,Ю-З 1 - 10 км - ясно 755 767 +0.8 99% +4.7° более 2.5 км - - - -
00:00 +7.3° Ю,Ю-З 1 - 10 км - ясно 754 766 +0.6 99% +7.1° более 2.5 км - - - -
Суббота, 17 Августа
Время местн. Темп Ветер Видим Явления Облачность нижн/средн/верх Атм. давл. Влжн Точка росы ВНГО R Сост. почвы Tg s
Напр Скр Прв ур.ст ур.м изм
21:00 +10.1° штиль 0 - 10 км - переменная облачность 754 765 +0.8 98% +9.8° - - - - -
18:00 +16.8° штиль 0 - 10 км - облачно с прояснениями 753 764 +0.4 69% +11° 1 км 0 - - -
15:00 +21° С-З 2 - 10 км - облачно с прояснениями 753 764 +0.1 41% +7.4° 1 км - - - -
12:00 +19.1° С 2 - 10 км - облачно с прояснениями 752 764 +0.1 51% +8.7° 1 км - - - -
09:00 +18.4° Ю,Ю-З 1 - 10 км - облачно с прояснениями 752 764 +0.5 61% +10.7° более 2.5 км - - - -
06:00 +10.6° Ю-З 1 - 10 км - облачно 752 764 +0.7 95% +9.9° - 0 Сухая (без трещин) - -
03:00 +6.5° штиль 0 - 10 км - переменная облачность 751 763 +0.9 99% +6.4° более 2.5 км - - - -
00:00 +8.4° штиль 0 - 10 км - переменная облачность 750 762 +1.1 99% +8.2° более 2.5 км - - - -
Пятница, 16 Августа
Время местн. Темп Ветер Видим Явления Облачность нижн/средн/верх Атм. давл. Влжн Точка росы ВНГО R Сост. почвы Tg s
Напр Скр Прв ур.ст ур.м изм
21:00 +12° штиль 0 - 10 км - облачно с прояснениями 749 761 +0.5 92% +10.8° - - - - -
18:00 +18.1° З 2 - 10 км - облачно 749 760 +0.7 53% +8.4° - 0 - - -
15:00 +21° З,С-З 3 - 10 км - преимущественно облачно 748 759 +0.7 45% +8.7° более 2.5 км - - - -
12:00 +21.3° З 4 - 10 км - облачно 747 759 +0.5 52% +11° 1 км - - - -
09:00 +19° Ю-З 3 - 10 км небо без изменений {ливневые осадки} преимущественно облачно 747 758 +0.5 80% +15.5° 1 км - - - -
06:00 +16° Ю-З 3 - 10 км небо без изменений {ливневые осадки} облачно 746 758 -0.2 91% +14.5° 600 м 0 Влажная (без луж) - -
03:00 +14.9° Ю 1 - 10 км - облачно 747 758 -1.6 92% +13.6° 600 м - - - -
00:00 +13.7° Ю 1 - 10 км - преимущественно облачно 748 760 -0.5 93% +12.6° 1 км - - - -
Четверг, 15 Августа
Время местн. Темп Ветер Видим Явления Облачность нижн/средн/верх Атм. давл. Влжн Точка росы ВНГО R Сост. почвы Tg s
Напр Скр Прв ур.ст ур.м изм
21:00 +13.9° Ю 1 - 10 км - облачно 749 760 -0.5 91% +12.4° 1 км - - - -
18:00 +14.6° штиль 0 - 10 км - облачно 749 761 -0.7 88% +12.7° 1 км 0 - - -
15:00 +16.8° Ю,Ю-З 1 - 10 км - преимущественно облачно 750 761 -0.6 68% +10.9° 1 км - - - -
12:00 +15° З,Ю-З 1 - 10 км - преимущественно облачно 750 762 0 81% +11.7° 1 км - - - -
09:00 +12.7° З 1 - 10 км - облачно 750 762 +0.1 91% +11.2° 600 м - - - -
06:00 +11.6° штиль 0 - 10 км - облачно 750 762 +0.5 93% +10.5° 600 м 0.3 Влажная (без луж) - -
03:00 +11.8° С-З 1 - 4 км дымка облачно 750 762 +0.5 99% +11.6° 300 м - - - -
00:00 +12.4° С-З 1 - 10 км - облачно 749 761 -0.1 98% +12.1° 300 м - - - -